Time;durP1;ratioP1;P1;durP2;ratioP2;P2;SDS_P1;SDS_P2;PMS_P1;PMS_P2;Temp;Humidity;BMP_temperature;BMP_pressure;BME280_temperature;BME280_humidity;BME280_pressure;Samples;Min_cycle;Max_cycle;Signal;HPM_P1;HPM_P2
2023/07/08 00:02:22;;;;;;;5.35;3.50;;;;;;;;;;5015347;28;20026;-71
2023/07/08 00:04:47;;;;;;;4.82;3.67;;;;;;;;;;5015833;28;20075;-71
2023/07/08 00:07:15;;;;;;;4.72;3.47;;;;;;;;;;5016451;28;20096;-71
2023/07/08 00:09:40;;;;;;;5.38;3.78;;;;;;;;;;5014565;28;20542;-70
2023/07/08 00:12:11;;;;;;;4.40;3.33;;;;;;;;;;5016477;28;20033;-70
2023/07/08 00:14:36;;;;;;;4.82;3.97;;;;;;;;;;5015339;28;20033;-71
2023/07/08 00:17:01;;;;;;;5.65;4.40;;;;;;;;;;5031558;28;20383;-70
2023/07/08 00:19:27;;;;;;;4.82;3.72;;;;;;;;;;5014327;28;20030;-70
2023/07/08 00:21:52;;;;;;;5.75;4.03;;;;;;;;;;5016157;28;20022;-70
2023/07/08 00:24:18;;;;;;;6.10;3.83;;;;;;;;;;5016277;28;20029;-71
2023/07/08 00:26:43;;;;;;;4.70;3.55;;;;;;;;;;5016049;28;20028;-71
2023/07/08 00:29:10;;;;;;;5.40;4.05;;;;;;;;;;5015038;28;20021;-71
2023/07/08 00:31:35;;;;;;;5.20;3.85;;;;;;;;;;5014458;28;20507;-71
2023/07/08 00:34:03;;;;;;;5.35;3.92;;;;;;;;;;5015876;28;20026;-71
2023/07/08 00:36:28;;;;;;;4.90;3.80;;;;;;;;;;5016091;28;20030;-70
2023/07/08 00:38:54;;;;;;;5.15;3.85;;;;;;;;;;5014881;28;20036;-70
2023/07/08 00:41:27;;;;;;;5.80;4.72;;;;;;;;;;5015770;28;20445;-70
2023/07/08 00:43:55;;;;;;;5.07;3.95;;;;;;;;;;5014531;28;20442;-71
2023/07/08 00:46:26;;;;;;;5.10;3.70;;;;;;;;;;5014816;28;20033;-70
2023/07/08 00:48:52;;;;;;;;;;;;;;;;;;5016166;28;20119;-70
2023/07/08 00:51:19;;;;;;;6.28;4.00;;;;;;;;;;5014480;28;19913;-70
2023/07/08 00:53:44;;;;;;;6.78;4.70;;;;;;;;;;5014333;28;20029;-70
2023/07/08 00:56:16;;;;;;;4.97;3.65;;;;;;;;;;5014024;28;20434;-71
2023/07/08 00:58:49;;;;;;;5.70;4.30;;;;;;;;;;5014152;28;20037;-71
2023/07/08 01:01:15;;;;;;;6.30;3.88;;;;;;;;;;5015520;28;20033;-71
2023/07/08 01:03:45;;;;;;;5.13;3.88;;;;;;;;;;5014244;28;20026;-71
2023/07/08 01:06:12;;;;;;;5.50;3.65;;;;;;;;;;5014499;28;20438;-71
2023/07/08 01:08:38;;;;;;;5.43;3.45;;;;;;;;;;5013393;28;20049;-71
2023/07/08 01:11:04;;;;;;;7.35;4.30;;;;;;;;;;5015271;28;20373;-72
2023/07/08 01:13:35;;;;;;;4.80;3.50;;;;;;;;;;5015092;28;20032;-71
2023/07/08 01:16:00;;;;;;;4.88;3.60;;;;;;;;;;5015181;28;20553;-70
2023/07/08 01:18:26;;;;;;;6.53;4.32;;;;;;;;;;5013852;28;20030;-70
2023/07/08 01:20:55;;;;;;;6.55;5.10;;;;;;;;;;5013871;28;20072;-70
2023/07/08 01:23:20;;;;;;;6.07;5.00;;;;;;;;;;5015001;28;20360;-71
2023/07/08 01:25:45;;;;;;;5.20;4.32;;;;;;;;;;5013751;28;20041;-71
2023/07/08 01:28:11;;;;;;;8.07;5.00;;;;;;;;;;5013769;28;20504;-70
2023/07/08 01:30:37;;;;;;;5.07;3.70;;;;;;;;;;5013795;28;20061;-70
2023/07/08 01:33:05;;;;;;;5.68;4.35;;;;;;;;;;5014759;28;20022;-71
2023/07/08 01:35:30;;;;;;;6.57;5.95;;;;;;;;;;5013159;28;20394;-71
2023/07/08 01:38:01;;;;;;;5.35;3.90;;;;;;;;;;5013456;28;20018;-71
2023/07/08 01:40:30;;;;;;;6.13;4.47;;;;;;;;;;5013570;28;20026;-71
2023/07/08 01:42:56;;;;;;;4.85;3.75;;;;;;;;;;5012974;28;20028;-70
2023/07/08 01:45:23;;;;;;;5.93;4.00;;;;;;;;;;5013424;28;20112;-70
2023/07/08 01:47:55;;;;;;;6.18;4.30;;;;;;;;;;4996884;28;20505;-71
2023/07/08 01:50:21;;;;;;;6.20;4.20;;;;;;;;;;5012808;28;20030;-70
2023/07/08 01:52:47;;;;;;;6.60;5.47;;;;;;;;;;5013275;28;20431;-71
2023/07/08 01:55:12;;;;;;;5.55;4.15;;;;;;;;;;5013469;28;20029;-71
2023/07/08 01:57:38;;;;;;;7.13;4.30;;;;;;;;;;5012935;28;20038;-70
2023/07/08 02:00:04;;;;;;;4.55;4.05;;;;;;;;;;5036746;23;20048;-67
2023/07/08 02:02:29;;;;;;;6.45;4.20;;;;;;;;;;5014246;28;20033;-67
2023/07/08 02:04:55;;;;;;;6.82;4.82;;;;;;;;;;5013718;28;20040;-67
2023/07/08 02:07:20;;;;;;;6.03;4.70;;;;;;;;;;5012492;28;20468;-67
2023/07/08 02:09:45;;;;;;;6.82;3.78;;;;;;;;;;5001112;28;20022;-67
2023/07/08 02:12:11;;;;;;;5.68;4.40;;;;;;;;;;5013814;28;20025;-67
2023/07/08 02:14:36;;;;;;;6.95;4.53;;;;;;;;;;5013782;28;20469;-67
2023/07/08 02:17:05;;;;;;;5.13;3.55;;;;;;;;;;5013412;28;20025;-67
2023/07/08 02:19:31;;;;;;;5.05;3.83;;;;;;;;;;5013009;28;20033;-67
2023/07/08 02:21:56;;;;;;;6.45;4.20;;;;;;;;;;5012428;28;20037;-67
2023/07/08 02:24:22;;;;;;;5.63;4.22;;;;;;;;;;5013365;28;20022;-67
2023/07/08 02:26:48;;;;;;;6.78;5.00;;;;;;;;;;5013256;28;20025;-67
2023/07/08 02:29:13;;;;;;;9.32;5.50;;;;;;;;;;5012200;28;20029;-67
2023/07/08 02:31:39;;;;;;;6.03;4.78;;;;;;;;;;5014011;28;20021;-67
2023/07/08 02:34:04;;;;;;;6.40;4.65;;;;;;;;;;5013656;28;20026;-67
2023/07/08 02:36:29;;;;;;;9.07;6.53;;;;;;;;;;5013211;28;20051;-67
2023/07/08 02:38:55;;;;;;;7.63;5.60;;;;;;;;;;5013515;28;20079;-67
2023/07/08 02:41:20;;;;;;;7.60;5.90;;;;;;;;;;5013542;28;20034;-67
2023/07/08 02:43:45;;;;;;;7.60;6.22;;;;;;;;;;5013482;28;20361;-67
2023/07/08 02:46:11;;;;;;;8.10;5.88;;;;;;;;;;5013498;28;20017;-67
2023/07/08 02:48:36;;;;;;;8.48;5.68;;;;;;;;;;5012947;28;20026;-67
2023/07/08 02:51:04;;;;;;;9.07;5.50;;;;;;;;;;5013629;28;20030;-68
2023/07/08 02:53:29;;;;;;;7.75;6.22;;;;;;;;;;5013362;28;20022;-67
2023/07/08 02:55:54;;;;;;;8.77;5.70;;;;;;;;;;5011625;28;20037;-68
2023/07/08 02:58:20;;;;;;;8.10;5.38;;;;;;;;;;5012571;28;20030;-67
2023/07/08 03:00:45;;;;;;;8.20;5.38;;;;;;;;;;5012808;28;20038;-67
2023/07/08 03:03:11;;;;;;;9.18;6.18;;;;;;;;;;5013414;28;20028;-67
2023/07/08 03:05:36;;;;;;;9.73;6.80;;;;;;;;;;5013288;28;20541;-67
2023/07/08 03:08:03;;;;;;;8.68;6.10;;;;;;;;;;5013314;28;20025;-67
2023/07/08 03:10:28;;;;;;;9.80;6.68;;;;;;;;;;5012210;28;20038;-67
2023/07/08 03:12:53;;;;;;;7.60;5.50;;;;;;;;;;5012972;28;20085;-67
2023/07/08 03:15:19;;;;;;;10.63;6.97;;;;;;;;;;5012766;28;20021;-67
2023/07/08 03:17:45;;;;;;;9.77;6.97;;;;;;;;;;5012147;28;20034;-67
2023/07/08 03:20:11;;;;;;;9.07;6.38;;;;;;;;;;5016828;28;20061;-67
2023/07/08 03:22:37;;;;;;;12.18;7.05;;;;;;;;;;5018050;28;20021;-67
2023/07/08 03:25:02;;;;;;;10.27;7.38;;;;;;;;;;5017807;28;20108;-67
2023/07/08 03:27:28;;;;;;;10.25;7.40;;;;;;;;;;5019228;28;20050;-67
2023/07/08 03:29:53;;;;;;;10.18;7.93;;;;;;;;;;5018538;28;20036;-67
2023/07/08 03:32:19;;;;;;;9.82;7.32;;;;;;;;;;5019214;28;20026;-67
2023/07/08 03:34:44;;;;;;;11.45;8.18;;;;;;;;;;5018765;28;20026;-67
2023/07/08 03:37:10;;;;;;;9.95;7.65;;;;;;;;;;5019094;28;20017;-68
2023/07/08 03:39:35;;;;;;;10.57;7.53;;;;;;;;;;5018499;28;20030;-67
2023/07/08 03:42:01;;;;;;;9.65;6.78;;;;;;;;;;5018259;28;20028;-67
2023/07/08 03:44:26;;;;;;;10.30;7.63;;;;;;;;;;5018601;28;20026;-67
2023/07/08 03:46:51;;;;;;;9.30;7.00;;;;;;;;;;5019477;28;20025;-67
2023/07/08 03:49:21;;;;;;;8.95;6.28;;;;;;;;;;5018304;28;20026;-67
2023/07/08 03:51:48;;;;;;;11.55;6.90;;;;;;;;;;5018649;28;20018;-67
2023/07/08 03:54:14;;;;;;;10.63;8.25;;;;;;;;;;5017277;28;20422;-67
2023/07/08 03:56:39;;;;;;;11.00;8.00;;;;;;;;;;5018189;28;20033;-67
2023/07/08 03:59:05;;;;;;;9.80;6.80;;;;;;;;;;5017751;28;20037;-67
2023/07/08 04:01:30;;;;;;;9.63;7.10;;;;;;;;;;5019011;28;20037;-67
2023/07/08 04:03:58;;;;;;;10.95;8.48;;;;;;;;;;5018800;28;20479;-67
2023/07/08 04:06:23;;;;;;;11.73;8.30;;;;;;;;;;5019289;28;20100;-67
2023/07/08 04:08:49;;;;;;;14.85;8.65;;;;;;;;;;5018727;28;20021;-67
2023/07/08 04:11:17;;;;;;;15.07;9.75;;;;;;;;;;5013558;28;20049;-67
2023/07/08 04:13:43;;;;;;;10.38;7.07;;;;;;;;;;4999159;28;20038;-67
2023/07/08 04:16:16;;;;;;;12.20;8.80;;;;;;;;;;5011373;28;20376;-67
2023/07/08 04:18:41;;;;;;;13.35;7.70;;;;;;;;;;5017923;28;20514;-67
2023/07/08 04:21:07;;;;;;;9.30;7.53;;;;;;;;;;5018833;28;20033;-67
2023/07/08 04:23:32;;;;;;;13.00;9.60;;;;;;;;;;5018953;28;20488;-67
2023/07/08 04:25:58;;;;;;;12.82;9.05;;;;;;;;;;5017875;28;20060;-67
2023/07/08 04:28:23;;;;;;;12.13;8.63;;;;;;;;;;5017613;28;20083;-67
2023/07/08 04:30:49;;;;;;;15.18;12.25;;;;;;;;;;5016399;28;20411;-67
2023/07/08 04:33:15;;;;;;;12.77;8.90;;;;;;;;;;5015662;28;20018;-67
2023/07/08 04:35:41;;;;;;;11.85;8.50;;;;;;;;;;5014668;28;20041;-67
2023/07/08 04:38:10;;;;;;;14.63;8.85;;;;;;;;;;5014123;28;20112;-67
2023/07/08 04:40:39;;;;;;;12.95;10.05;;;;;;;;;;5010521;28;20117;-67
2023/07/08 04:43:05;;;;;;;12.52;8.85;;;;;;;;;;4996179;28;20026;-67
2023/07/08 04:45:31;;;;;;;11.32;8.20;;;;;;;;;;5015149;28;20055;-67
2023/07/08 04:47:56;;;;;;;14.02;10.32;;;;;;;;;;5014176;28;20031;-67
2023/07/08 04:50:21;;;;;;;13.68;9.38;;;;;;;;;;5014804;28;20026;-67
2023/07/08 04:52:47;;;;;;;12.75;9.07;;;;;;;;;;5015543;28;20125;-67
2023/07/08 04:55:13;;;;;;;14.00;10.30;;;;;;;;;;5015200;28;20026;-67
2023/07/08 04:57:38;;;;;;;17.98;11.90;;;;;;;;;;5015713;28;20030;-67
2023/07/08 05:00:07;;;;;;;16.08;11.55;;;;;;;;;;5014958;28;20377;-67
2023/07/08 05:02:33;;;;;;;14.85;10.57;;;;;;;;;;5014835;28;20075;-68
2023/07/08 05:04:58;;;;;;;14.75;9.73;;;;;;;;;;5014900;28;20468;-67
2023/07/08 05:07:23;;;;;;;16.23;11.27;;;;;;;;;;5015334;28;20026;-67
2023/07/08 05:09:49;;;;;;;16.42;11.05;;;;;;;;;;5015262;28;20026;-67
2023/07/08 05:12:14;;;;;;;20.40;14.30;;;;;;;;;;5015230;28;20364;-68
2023/07/08 05:14:39;;;;;;;16.73;11.65;;;;;;;;;;5015699;28;20025;-67
2023/07/08 05:17:05;;;;;;;14.07;10.38;;;;;;;;;;5015118;28;20026;-68
2023/07/08 05:19:30;;;;;;;15.55;10.50;;;;;;;;;;5014526;28;20025;-67
2023/07/08 05:21:55;;;;;;;15.43;11.07;;;;;;;;;;5015034;28;20396;-67
2023/07/08 05:24:21;;;;;;;15.60;11.15;;;;;;;;;;5015286;28;20014;-67
2023/07/08 05:26:46;;;;;;;19.35;13.52;;;;;;;;;;5014949;28;20480;-67
2023/07/08 05:29:11;;;;;;;23.63;15.80;;;;;;;;;;5015014;28;20030;-68
2023/07/08 05:31:37;;;;;;;20.08;13.50;;;;;;;;;;5014365;28;20026;-67
2023/07/08 05:34:02;;;;;;;16.65;11.32;;;;;;;;;;5014799;28;20499;-68
2023/07/08 05:36:27;;;;;;;17.83;13.23;;;;;;;;;;5014747;28;20018;-67
2023/07/08 05:38:53;;;;;;;17.92;12.20;;;;;;;;;;5014619;28;20030;-67
2023/07/08 05:41:18;;;;;;;16.20;11.85;;;;;;;;;;5014156;28;20032;-67
2023/07/08 05:43:44;;;;;;;17.08;10.13;;;;;;;;;;5014142;28;20533;-68
2023/07/08 05:46:09;;;;;;;15.23;10.80;;;;;;;;;;5014843;28;20028;-68
2023/07/08 05:48:35;;;;;;;12.88;8.88;;;;;;;;;;5013946;28;20075;-67
2023/07/08 05:51:01;;;;;;;14.57;9.77;;;;;;;;;;5013363;28;20026;-68
2023/07/08 05:53:26;;;;;;;15.00;9.70;;;;;;;;;;5014370;28;20476;-68
2023/07/08 05:55:51;;;;;;;12.68;9.60;;;;;;;;;;5014711;28;20026;-68
2023/07/08 05:58:17;;;;;;;18.10;12.85;;;;;;;;;;5013923;28;20034;-68
2023/07/08 06:00:43;;;;;;;10.02;7.80;;;;;;;;;;5014393;28;20026;-69
2023/07/08 06:03:09;;;;;;;16.52;11.10;;;;;;;;;;5013080;28;20037;-69
2023/07/08 06:05:34;;;;;;;13.07;9.82;;;;;;;;;;5014435;28;20037;-70
2023/07/08 06:08:00;;;;;;;11.77;7.95;;;;;;;;;;5014102;28;20028;-69
2023/07/08 06:10:25;;;;;;;11.65;8.32;;;;;;;;;;5013615;28;20036;-69
2023/07/08 06:12:50;;;;;;;11.40;8.18;;;;;;;;;;5014650;28;20021;-69
2023/07/08 06:15:16;;;;;;;8.45;6.55;;;;;;;;;;5014024;28;20022;-69
2023/07/08 06:17:41;;;;;;;10.90;7.25;;;;;;;;;;5014321;28;20021;-69
2023/07/08 06:20:07;;;;;;;9.43;7.35;;;;;;;;;;5013929;28;20024;-69
2023/07/08 06:22:32;;;;;;;10.10;6.82;;;;;;;;;;5013366;28;20494;-69
2023/07/08 06:24:58;;;;;;;10.23;7.22;;;;;;;;;;5012803;28;20056;-69
2023/07/08 06:27:24;;;;;;;10.13;7.13;;;;;;;;;;5013953;28;20056;-70
2023/07/08 06:29:50;;;;;;;9.20;6.07;;;;;;;;;;5013824;28;20093;-70
2023/07/08 06:32:15;;;;;;;7.40;6.15;;;;;;;;;;5013921;28;20494;-69
2023/07/08 06:34:40;;;;;;;9.02;5.75;;;;;;;;;;5013131;28;20022;-69
2023/07/08 06:37:06;;;;;;;7.57;5.90;;;;;;;;;;5013988;28;20034;-69
2023/07/08 06:39:31;;;;;;;8.25;5.80;;;;;;;;;;5013680;28;20476;-69
2023/07/08 06:41:56;;;;;;;5.93;3.85;;;;;;;;;;5013687;28;20026;-69
2023/07/08 06:44:22;;;;;;;8.55;4.75;;;;;;;;;;5013789;28;20017;-69
2023/07/08 06:46:47;;;;;;;7.05;4.13;;;;;;;;;;5013802;28;20022;-69
2023/07/08 06:49:12;;;;;;;5.88;5.28;;;;;;;;;;5012971;28;20038;-69
2023/07/08 06:51:39;;;;;;;4.90;3.97;;;;;;;;;;5013775;28;20407;-69
2023/07/08 06:54:10;;;;;;;5.28;3.92;;;;;;;;;;5012495;28;20026;-69
2023/07/08 06:56:39;;;;;;;5.53;4.05;;;;;;;;;;5012248;28;20036;-69
2023/07/08 06:59:05;;;;;;;8.00;4.90;;;;;;;;;;5011638;28;20110;-69
2023/07/08 07:01:30;;;;;;;4.30;3.50;;;;;;;;;;5013420;28;20033;-69
2023/07/08 07:03:56;;;;;;;5.80;3.53;;;;;;;;;;5012456;28;20029;-69
2023/07/08 07:06:21;;;;;;;4.53;3.25;;;;;;;;;;5012154;28;20479;-69
2023/07/08 07:08:46;;;;;;;4.85;3.30;;;;;;;;;;5013039;28;20029;-69
2023/07/08 07:11:12;;;;;;;4.93;3.63;;;;;;;;;;5013429;28;20038;-69
2023/07/08 07:13:37;;;;;;;6.70;3.67;;;;;;;;;;5013471;28;20026;-69
2023/07/08 07:16:03;;;;;;;6.35;3.75;;;;;;;;;;5013295;28;20040;-69
2023/07/08 07:18:28;;;;;;;6.93;3.47;;;;;;;;;;5013376;28;20480;-69
2023/07/08 07:20:54;;;;;;;5.18;3.28;;;;;;;;;;5012914;28;20032;-69
2023/07/08 07:23:19;;;;;;;3.55;2.60;;;;;;;;;;5013157;28;20037;-69
2023/07/08 07:25:47;;;;;;;4.75;3.10;;;;;;;;;;5028285;28;20026;-69
2023/07/08 07:28:13;;;;;;;5.18;3.70;;;;;;;;;;5013326;28;20032;-69
2023/07/08 07:30:38;;;;;;;5.13;3.50;;;;;;;;;;5011760;28;20022;-69
2023/07/08 07:33:03;;;;;;;7.32;4.07;;;;;;;;;;5012578;28;20398;-70
2023/07/08 07:35:29;;;;;;;4.95;3.30;;;;;;;;;;5012978;28;20026;-69
2023/07/08 07:37:54;;;;;;;4.35;2.80;;;;;;;;;;5011889;28;20075;-70
2023/07/08 07:40:19;;;;;;;4.10;3.33;;;;;;;;;;5012996;28;20018;-70
2023/07/08 07:42:46;;;;;;;6.32;3.35;;;;;;;;;;5012989;28;20029;-69
2023/07/08 07:45:11;;;;;;;3.65;2.80;;;;;;;;;;5012457;28;20029;-69
2023/07/08 07:47:37;;;;;;;6.60;3.50;;;;;;;;;;5012915;28;20022;-69
2023/07/08 07:50:04;;;;;;;5.15;3.33;;;;;;;;;;5011645;28;20495;-69
2023/07/08 07:52:30;;;;;;;6.70;3.70;;;;;;;;;;5011751;28;20489;-69
2023/07/08 07:54:55;;;;;;;6.78;2.83;;;;;;;;;;5012810;28;20036;-69
2023/07/08 07:57:22;;;;;;;5.38;3.30;;;;;;;;;;5012464;28;20048;-69
2023/07/08 07:59:48;;;;;;;7.13;3.33;;;;;;;;;;5011491;28;20033;-69
2023/07/08 08:02:14;;;;;;;5.88;3.80;;;;;;;;;;5011825;28;20030;-70
2023/07/08 08:04:39;;;;;;;3.95;2.60;;;;;;;;;;5012836;28;20040;-69
2023/07/08 08:07:05;;;;;;;5.70;3.22;;;;;;;;;;5010130;28;20025;-69
2023/07/08 08:09:30;;;;;;;4.65;2.92;;;;;;;;;;5016189;28;20075;-69
2023/07/08 08:11:55;;;;;;;5.18;3.25;;;;;;;;;;5015381;28;20028;-70
2023/07/08 08:14:21;;;;;;;6.78;3.20;;;;;;;;;;5015977;28;20386;-70
2023/07/08 08:16:46;;;;;;;5.65;3.60;;;;;;;;;;5014630;28;20378;-70
2023/07/08 08:19:12;;;;;;;6.93;2.97;;;;;;;;;;5016039;28;20025;-69
2023/07/08 08:21:37;;;;;;;8.80;3.20;;;;;;;;;;5016014;28;20026;-70
2023/07/08 08:24:02;;;;;;;5.43;3.88;;;;;;;;;;5016098;28;20136;-70
2023/07/08 08:26:28;;;;;;;5.93;2.88;;;;;;;;;;5015862;28;20025;-69
2023/07/08 08:28:53;;;;;;;5.70;3.33;;;;;;;;;;5015902;28;20034;-69
2023/07/08 08:31:19;;;;;;;4.82;3.40;;;;;;;;;;5015786;28;20026;-72
2023/07/08 08:33:44;;;;;;;5.43;3.42;;;;;;;;;;5015597;28;20030;-72
2023/07/08 08:36:09;;;;;;;4.88;3.10;;;;;;;;;;5016006;28;20017;-71
2023/07/08 08:38:35;;;;;;;5.32;3.38;;;;;;;;;;5014024;28;20026;-68
2023/07/08 08:41:24;;;;;;;5.47;3.40;;;;;;;;;;5015917;28;20040;-68
2023/07/08 08:43:50;;;;;;;5.05;3.42;;;;;;;;;;5014750;28;20030;-68
2023/07/08 08:46:18;;;;;;;7.72;3.28;;;;;;;;;;5015254;28;20104;-68
2023/07/08 08:48:59;;;;;;;3.78;2.90;;;;;;;;;;5015562;28;20037;-68
2023/07/08 08:51:26;;;;;;;6.22;4.10;;;;;;;;;;5014635;28;20446;-68
2023/07/08 08:53:54;;;;;;;4.60;2.90;;;;;;;;;;5014571;28;20030;-68
2023/07/08 08:56:23;;;;;;;5.70;3.38;;;;;;;;;;5014145;28;20105;-68
2023/07/08 08:58:57;;;;;;;6.22;3.15;;;;;;;;;;5013688;28;20110;-68
2023/07/08 09:01:22;;;;;;;5.47;3.20;;;;;;;;;;5015838;28;20022;-68
2023/07/08 09:03:56;;;;;;;8.25;3.30;;;;;;;;;;5014193;28;20032;-68
2023/07/08 09:06:25;;;;;;;7.75;2.75;;;;;;;;;;5014588;28;20018;-68
2023/07/08 09:08:51;;;;;;;5.70;3.50;;;;;;;;;;5013557;28;20372;-68
2023/07/08 09:12:06;;;;;;;4.32;3.60;;;;;;;;;;5013623;28;20038;-68
2023/07/08 09:14:34;;;;;;;4.60;3.15;;;;;;;;;;5006794;28;20562;-69
2023/07/08 09:17:22;;;;;;;3.60;2.97;;;;;;;;;;5014372;28;20060;-69
2023/07/08 09:19:58;;;;;;;5.55;3.45;;;;;;;;;;5013983;28;20109;-68
2023/07/08 09:22:39;;;;;;;4.82;2.80;;;;;;;;;;5013303;28;20104;-68
2023/07/08 09:25:22;;;;;;;6.30;3.03;;;;;;;;;;5013968;28;20022;-68
2023/07/08 09:27:47;;;;;;;5.00;3.35;;;;;;;;;;4997355;28;20018;-68
2023/07/08 09:30:20;;;;;;;4.43;2.63;;;;;;;;;;5014351;28;20075;-68
2023/07/08 09:32:46;;;;;;;5.38;2.90;;;;;;;;;;5014836;28;20024;-68
2023/07/08 09:35:18;;;;;;;6.30;2.72;;;;;;;;;;5013512;28;20112;-68
2023/07/08 09:37:46;;;;;;;8.50;3.15;;;;;;;;;;5013552;28;20058;-69
2023/07/08 09:40:19;;;;;;;5.40;2.88;;;;;;;;;;5014652;28;20546;-69
2023/07/08 09:42:49;;;;;;;8.70;2.80;;;;;;;;;;5014176;28;20538;-69
2023/07/08 09:45:21;;;;;;;6.10;2.90;;;;;;;;;;5014871;28;20049;-69
2023/07/08 09:47:47;;;;;;;6.20;2.78;;;;;;;;;;5014823;28;20053;-69
2023/07/08 09:50:23;;;;;;;6.88;2.80;;;;;;;;;;5014627;28;20068;-69
2023/07/08 09:52:51;;;;;;;4.40;2.75;;;;;;;;;;5013997;28;20072;-69
2023/07/08 09:55:17;;;;;;;5.20;2.90;;;;;;;;;;5014094;28;20025;-69
2023/07/08 09:57:44;;;;;;;4.53;2.70;;;;;;;;;;5014471;28;20502;-68
2023/07/08 10:00:15;;;;;;;3.45;2.50;;;;;;;;;;5014160;28;20026;-68
2023/07/08 10:02:55;;;;;;;4.97;2.70;;;;;;;;;;5013788;28;20048;-68
2023/07/08 10:05:24;;;;;;;4.25;2.67;;;;;;;;;;5013213;28;20014;-68
2023/07/08 10:07:53;;;;;;;6.85;2.90;;;;;;;;;;5014423;28;20036;-68
2023/07/08 10:10:28;;;;;;;4.47;2.80;;;;;;;;;;5012920;28;20080;-68
2023/07/08 10:13:04;;;;;;;3.45;2.42;;;;;;;;;;5014073;28;20108;-68
2023/07/08 10:15:34;;;;;;;4.22;2.88;;;;;;;;;;5013159;28;20026;-68
2023/07/08 10:18:00;;;;;;;4.30;2.67;;;;;;;;;;5012319;28;20488;-68
2023/07/08 10:20:30;;;;;;;5.30;3.42;;;;;;;;;;5014030;28;20026;-68
2023/07/08 10:23:09;;;;;;;4.43;2.78;;;;;;;;;;5012758;28;20073;-68
2023/07/08 10:25:41;;;;;;;5.45;2.67;;;;;;;;;;5012695;28;20478;-68
2023/07/08 10:28:33;;;;;;;4.43;2.50;;;;;;;;;;5013705;28;20029;-68
2023/07/08 10:31:11;;;;;;;4.20;2.65;;;;;;;;;;5012897;28;20116;-68
2023/07/08 10:33:55;;;;;;;3.97;2.55;;;;;;;;;;5013742;28;20025;-68
2023/07/08 10:36:38;;;;;;;5.43;2.58;;;;;;;;;;5014273;28;20037;-68
2023/07/08 10:39:20;;;;;;;4.15;3.00;;;;;;;;;;5013678;28;20096;-68
2023/07/08 10:41:55;;;;;;;3.30;2.40;;;;;;;;;;5014487;28;20360;-68
2023/07/08 10:44:27;;;;;;;4.63;2.50;;;;;;;;;;5013013;28;20028;-68
2023/07/08 10:47:32;;;;;;;4.63;2.80;;;;;;;;;;5012466;28;20032;-68
2023/07/08 10:50:00;;;;;;;3.97;2.60;;;;;;;;;;5012285;28;20037;-68
2023/07/08 10:52:37;;;;;;;4.00;2.78;;;;;;;;;;5012102;28;20033;-68
2023/07/08 10:55:31;;;;;;;5.10;2.45;;;;;;;;;;5012292;28;20026;-68
2023/07/08 10:58:16;;;;;;;3.92;2.58;;;;;;;;;;5013604;28;20060;-68
2023/07/08 11:00:59;;;;;;;3.83;2.85;;;;;;;;;;5011700;28;20025;-69
2023/07/08 11:04:00;;;;;;;5.03;3.25;;;;;;;;;;5013512;28;20041;-68
2023/07/08 11:06:51;;;;;;;4.00;2.40;;;;;;;;;;5012017;28;20026;-74
2023/07/08 11:09:30;;;;;;;4.97;2.40;;;;;;;;;;5012114;28;20101;-68
2023/07/08 11:12:04;;;;;;;3.85;2.20;;;;;;;;;;5012092;28;20037;-68
2023/07/08 11:14:53;;;;;;;5.28;2.63;;;;;;;;;;5012913;28;20024;-68
2023/07/08 11:17:40;;;;;;;3.50;2.45;;;;;;;;;;5013229;28;20057;-68
2023/07/08 11:20:26;;;;;;;4.25;2.60;;;;;;;;;;5012005;28;20448;-68
2023/07/08 11:22:59;;;;;;;4.13;2.20;;;;;;;;;;5013182;28;20049;-68
2023/07/08 11:25:26;;;;;;;3.92;2.83;;;;;;;;;;5013214;28;20049;-68
2023/07/08 11:27:55;;;;;;;3.58;2.58;;;;;;;;;;5011386;28;20025;-68
2023/07/08 11:30:26;;;;;;;5.40;2.55;;;;;;;;;;5011877;28;20040;-68
2023/07/08 11:33:00;;;;;;;3.80;2.42;;;;;;;;;;5013251;28;20022;-68
2023/07/08 11:35:36;;;;;;;5.55;2.83;;;;;;;;;;5011441;28;20088;-68
2023/07/08 11:38:02;;;;;;;4.43;2.60;;;;;;;;;;5013675;28;20022;-68
2023/07/08 11:40:28;;;;;;;5.50;2.30;;;;;;;;;;5013981;28;20044;-68
2023/07/08 11:43:00;;;;;;;4.38;3.08;;;;;;;;;;5015780;28;20419;-68
2023/07/08 11:45:44;;;;;;;6.00;2.97;;;;;;;;;;5017045;28;20109;-68
2023/07/08 11:48:13;;;;;;;4.40;3.00;;;;;;;;;;5016402;28;20046;-68
2023/07/08 11:50:44;;;;;;;3.65;2.70;;;;;;;;;;5015681;28;20029;-68
2023/07/08 11:53:11;;;;;;;4.68;2.75;;;;;;;;;;5017049;28;20084;-68
2023/07/08 11:55:40;;;;;;;4.03;2.40;;;;;;;;;;5015505;28;20028;-68
2023/07/08 11:58:20;;;;;;;4.50;3.00;;;;;;;;;;5016998;28;20026;-68
2023/07/08 12:01:11;;;;;;;4.10;2.78;;;;;;;;;;5016605;28;20029;-68
2023/07/08 12:03:39;;;;;;;5.18;2.75;;;;;;;;;;5015374;28;20036;-68
2023/07/08 12:06:27;;;;;;;4.35;3.03;;;;;;;;;;5016488;28;20402;-68
2023/07/08 12:09:00;;;;;;;4.13;2.38;;;;;;;;;;5016330;28;20037;-68
2023/07/08 12:11:34;;;;;;;4.40;2.78;;;;;;;;;;5015109;28;20467;-68
2023/07/08 12:14:03;;;;;;;3.83;2.35;;;;;;;;;;5015513;28;20022;-68
2023/07/08 12:16:30;;;;;;;6.28;3.03;;;;;;;;;;5015859;28;20022;-68
2023/07/08 12:18:56;;;;;;;4.30;3.00;;;;;;;;;;5015098;28;20438;-68
2023/07/08 12:21:22;;;;;;;6.40;2.60;;;;;;;;;;5015331;28;20040;-68
2023/07/08 12:23:48;;;;;;;4.22;2.50;;;;;;;;;;5016195;28;20026;-68
2023/07/08 12:26:14;;;;;;;4.38;2.50;;;;;;;;;;5016253;28;20028;-68
2023/07/08 12:28:39;;;;;;;5.38;3.05;;;;;;;;;;5015771;28;20447;-68
2023/07/08 12:31:19;;;;;;;3.85;2.35;;;;;;;;;;5016224;28;20022;-67
2023/07/08 12:33:45;;;;;;;5.38;2.42;;;;;;;;;;5016053;28;20049;-68
2023/07/08 12:36:15;;;;;;;3.63;2.83;;;;;;;;;;5014864;28;20537;-68
2023/07/08 12:38:43;;;;;;;4.80;2.60;;;;;;;;;;5014195;28;20149;-68
2023/07/08 12:41:12;;;;;;;7.38;2.80;;;;;;;;;;5014704;28;20026;-68
2023/07/08 12:43:37;;;;;;;5.43;2.80;;;;;;;;;;5015810;28;20109;-68
2023/07/08 12:46:03;;;;;;;5.88;2.40;;;;;;;;;;5015991;28;20022;-68
2023/07/08 12:48:33;;;;;;;2.72;2.35;;;;;;;;;;5016008;28;20026;-68
2023/07/08 12:50:59;;;;;;;;;;;;;;;;;;5014810;28;20026;-68
2023/07/08 12:53:24;;;;;;;4.97;2.90;;;;;;;;;;5014651;28;19916;-68
2023/07/08 12:55:52;;;;;;;7.65;2.53;;;;;;;;;;5016448;28;20025;-68
2023/07/08 12:58:31;;;;;;;3.78;2.42;;;;;;;;;;5014513;28;20044;-68
2023/07/08 13:00:58;;;;;;;3.85;2.60;;;;;;;;;;5015562;28;20026;-68
2023/07/08 13:03:26;;;;;;;4.32;2.55;;;;;;;;;;5015203;28;20026;-68
2023/07/08 13:05:53;;;;;;;6.45;2.85;;;;;;;;;;5014279;28;20061;-68
2023/07/08 13:08:20;;;;;;;3.85;2.97;;;;;;;;;;5015314;28;20030;-68
2023/07/08 13:10:46;;;;;;;4.05;2.60;;;;;;;;;;5013580;28;20018;-68
2023/07/08 13:13:21;;;;;;;4.03;2.63;;;;;;;;;;5014162;28;20080;-68
2023/07/08 13:15:46;;;;;;;4.70;2.40;;;;;;;;;;5014603;28;20022;-68
2023/07/08 13:18:21;;;;;;;4.65;3.03;;;;;;;;;;5014801;28;20099;-68
2023/07/08 13:20:51;;;;;;;4.18;2.58;;;;;;;;;;5015153;28;20026;-68
2023/07/08 13:23:16;;;;;;;4.18;2.80;;;;;;;;;;5013881;28;20484;-68
2023/07/08 13:25:41;;;;;;;5.15;2.67;;;;;;;;;;5015308;28;20115;-68
2023/07/08 13:28:24;;;;;;;4.25;2.53;;;;;;;;;;5014926;28;20115;-68
2023/07/08 13:30:56;;;;;;;6.10;2.80;;;;;;;;;;5014947;28;20026;-68
2023/07/08 13:33:22;;;;;;;4.57;2.55;;;;;;;;;;5014956;28;20018;-68
2023/07/08 13:35:49;;;;;;;5.15;2.83;;;;;;;;;;5013641;28;20026;-68
2023/07/08 13:38:18;;;;;;;4.13;2.33;;;;;;;;;;5013767;28;20033;-68
2023/07/08 13:40:47;;;;;;;4.63;2.53;;;;;;;;;;5030178;28;20033;-68
2023/07/08 13:43:12;;;;;;;4.20;2.75;;;;;;;;;;5029744;28;20109;-68
2023/07/08 13:45:47;;;;;;;5.35;3.05;;;;;;;;;;5013493;28;20101;-68
2023/07/08 13:48:21;;;;;;;4.57;2.53;;;;;;;;;;5014929;28;20072;-69
2023/07/08 13:50:52;;;;;;;3.17;2.28;;;;;;;;;;5013670;28;20026;-69
2023/07/08 13:53:27;;;;;;;3.40;2.25;;;;;;;;;;5013382;28;20029;-69
2023/07/08 13:55:58;;;;;;;4.20;2.42;;;;;;;;;;5014803;28;20025;-69
2023/07/08 13:58:27;;;;;;;3.08;2.03;;;;;;;;;;5013704;28;20026;-68
2023/07/08 14:00:52;;;;;;;7.00;2.85;;;;;;;;;;5014884;28;20041;-69
2023/07/08 14:03:17;;;;;;;5.18;2.75;;;;;;;;;;5014167;28;20030;-68
2023/07/08 14:05:44;;;;;;;3.83;2.53;;;;;;;;;;5007304;28;20018;-68
2023/07/08 14:08:12;;;;;;;4.47;2.90;;;;;;;;;;5014211;28;20395;-67
2023/07/08 14:10:38;;;;;;;4.10;2.78;;;;;;;;;;5013222;28;20117;-68
2023/07/08 14:13:03;;;;;;;4.18;2.38;;;;;;;;;;5013488;28;20522;-67
2023/07/08 14:15:28;;;;;;;3.78;2.63;;;;;;;;;;5013958;28;20029;-68
2023/07/08 14:17:54;;;;;;;4.15;2.63;;;;;;;;;;5014354;28;20025;-68
2023/07/08 14:20:20;;;;;;;5.95;3.00;;;;;;;;;;5013589;28;20021;-64
2023/07/08 14:22:45;;;;;;;4.18;2.35;;;;;;;;;;5013340;28;20049;-67
2023/07/08 14:25:14;;;;;;;4.05;2.72;;;;;;;;;;5012418;28;20570;-67
2023/07/08 14:27:39;;;;;;;4.53;2.58;;;;;;;;;;5014232;28;20033;-68
2023/07/08 14:30:05;;;;;;;4.82;2.40;;;;;;;;;;5013912;28;20036;-68
2023/07/08 14:32:31;;;;;;;4.13;2.45;;;;;;;;;;5014365;28;20450;-67
2023/07/08 14:35:00;;;;;;;4.32;2.65;;;;;;;;;;5013611;28;20044;-67
2023/07/08 14:37:25;;;;;;;5.75;3.00;;;;;;;;;;5012613;28;20029;-67
2023/07/08 14:39:51;;;;;;;4.43;2.42;;;;;;;;;;5013792;28;20483;-67
2023/07/08 14:42:18;;;;;;;4.38;2.60;;;;;;;;;;5013810;28;20036;-67
2023/07/08 14:44:50;;;;;;;5.78;3.13;;;;;;;;;;5013221;28;20038;-67
2023/07/08 14:47:17;;;;;;;3.53;2.38;;;;;;;;;;5014016;28;20083;-68
2023/07/08 14:49:43;;;;;;;6.32;2.80;;;;;;;;;;5013771;28;20041;-68